Time;durP1;ratioP1;P1;durP2;ratioP2;P2;SDS_P1;SDS_P2;PMS_P1;PMS_P2;Temp;Humidity;BMP_temperature;BMP_pressure;BME280_temperature;BME280_humidity;BME280_pressure;Samples;Min_cycle;Max_cycle;Signal;HPM_P1;HPM_P2
2021/07/26 00:01:31;;;;;;;10.40;9.30;;;;;;;23.55;100.00;95921.31;5015651;28;20077;-53
2021/07/26 00:03:59;;;;;;;10.63;8.73;;;;;;;23.30;100.00;95924.31;5007016;28;20552;-54
2021/07/26 00:06:29;;;;;;;15.55;9.60;;;;;;;23.53;100.00;95918.03;5008542;28;20076;-52
2021/07/26 00:08:57;;;;;;;11.10;9.40;;;;;;;23.90;100.00;95921.19;5008481;28;20076;-57
2021/07/26 00:11:26;;;;;;;14.30;10.68;;;;;;;23.66;100.00;95920.44;5008770;28;20072;-56
2021/07/26 00:13:54;;;;;;;13.60;9.82;;;;;;;23.46;100.00;95923.56;5008771;28;20081;-55
2021/07/26 00:16:22;;;;;;;13.60;10.05;;;;;;;23.68;100.00;95921.06;5014223;28;20072;-56
2021/07/26 00:18:51;;;;;;;11.25;10.13;;;;;;;23.96;100.00;95919.41;5004888;28;20074;-54
2021/07/26 00:21:19;;;;;;;14.85;11.25;;;;;;;24.07;100.00;95928.50;5001148;28;20401;-58
2021/07/26 00:23:49;;;;;;;14.50;11.32;;;;;;;23.72;100.00;95921.41;5010512;28;20070;-55
2021/07/26 00:26:17;;;;;;;14.43;11.32;;;;;;;23.34;100.00;95928.16;5010928;28;20077;-53
2021/07/26 00:28:46;;;;;;;14.52;11.35;;;;;;;23.77;100.00;95929.56;5009585;28;20092;-55
2021/07/26 00:31:14;;;;;;;16.00;12.50;;;;;;;23.35;100.00;95932.47;5006309;28;20468;-52
2021/07/26 00:34:19;;;;;;;14.18;11.85;;;;;;;23.86;100.00;95936.19;5011991;28;20070;-55
2021/07/26 00:36:49;;;;;;;16.40;12.68;;;;;;;23.53;100.00;95928.81;5007814;28;20511;-55
2021/07/26 00:39:21;;;;;;;18.58;12.63;;;;;;;23.19;100.00;95935.91;5006612;28;20069;-57
2021/07/26 00:41:50;;;;;;;17.60;12.70;;;;;;;23.11;100.00;95930.91;5004976;28;20073;-53
2021/07/26 00:44:20;;;;;;;13.82;12.25;;;;;;;23.33;100.00;95931.94;5011094;28;20077;-53
2021/07/26 00:46:49;;;;;;;18.13;13.27;;;;;;;23.55;100.00;95931.25;5009317;28;20093;-56
2021/07/26 00:49:18;;;;;;;17.23;13.32;;;;;;;23.06;100.00;95928.94;5006446;28;20504;-54
2021/07/26 00:51:48;;;;;;;21.20;14.18;;;;;;;23.48;100.00;95936.78;5008813;28;20081;-56
2021/07/26 00:54:20;;;;;;;16.23;13.45;;;;;;;23.58;100.00;95936.19;5011051;28;20062;-56
2021/07/26 00:56:49;;;;;;;19.38;14.25;;;;;;;23.29;100.00;95933.44;5007821;28;20065;-55
2021/07/26 00:59:17;;;;;;;15.38;12.77;;;;;;;23.56;100.00;95933.72;5005176;28;20528;-56
2021/07/26 01:01:46;;;;;;;16.58;13.18;;;;;;;23.60;100.00;95934.84;5006411;28;20085;-53
2021/07/26 01:04:15;;;;;;;16.70;13.63;;;;;;;23.68;100.00;95928.31;5008469;28;20080;-50
2021/07/26 01:06:43;;;;;;;18.88;14.35;;;;;;;24.06;100.00;95924.97;5007915;28;20069;-56
2021/07/26 01:09:12;;;;;;;16.35;14.02;;;;;;;23.00;100.00;95924.50;5008172;28;20081;-57
2021/07/26 01:11:42;;;;;;;22.30;13.80;;;;;;;22.72;100.00;95930.56;5009531;28;20073;-54
2021/07/26 01:14:11;;;;;;;17.17;14.10;;;;;;;23.03;100.00;95926.72;5006300;28;20148;-53
2021/07/26 01:16:40;;;;;;;19.58;13.93;;;;;;;22.91;100.00;95932.06;5006798;28;20104;-54
2021/07/26 01:19:09;;;;;;;20.38;14.27;;;;;;;23.11;100.00;95934.41;5010462;28;20076;-51
2021/07/26 01:21:38;;;;;;;17.27;13.40;;;;;;;23.55;100.00;95942.03;5009195;28;20058;-56
2021/07/26 01:24:07;;;;;;;17.83;13.35;;;;;;;23.97;100.00;95939.06;5005094;28;20069;-54
2021/07/26 01:26:35;;;;;;;20.92;13.60;;;;;;;24.31;100.00;95934.56;5005085;28;20074;-51
2021/07/26 01:29:05;;;;;;;19.80;13.02;;;;;;;24.46;100.00;95932.13;5009185;28;20085;-53
2021/07/26 01:31:34;;;;;;;14.88;12.18;;;;;;;24.72;100.00;95936.03;5006601;28;20101;-54
2021/07/26 01:34:03;;;;;;;17.27;12.60;;;;;;;24.67;100.00;95938.66;5006219;28;20066;-55
2021/07/26 01:36:31;;;;;;;15.40;12.50;;;;;;;24.52;100.00;95941.94;5009449;28;20073;-54
2021/07/26 01:39:01;;;;;;;16.25;11.98;;;;;;;24.03;100.00;95944.31;5010690;28;20116;-51
2021/07/26 01:41:35;;;;;;;13.75;11.88;;;;;;;24.22;100.00;95944.09;5011432;28;20061;-56
2021/07/26 01:44:06;;;;;;;16.38;11.68;;;;;;;23.92;100.00;95947.91;5007218;28;20515;-56
2021/07/26 01:46:48;;;;;;;17.83;12.65;;;;;;;24.43;100.00;95931.81;5010148;28;20524;-54
2021/07/26 01:49:29;;;;;;;16.42;12.45;;;;;;;24.46;100.00;95924.03;5005399;28;20480;-56
2021/07/26 01:51:57;;;;;;;15.15;12.50;;;;;;;24.49;100.00;95925.44;5006254;28;20073;-51
2021/07/26 01:54:27;;;;;;;15.23;12.98;;;;;;;23.17;100.00;95933.47;5003776;28;20068;-54
2021/07/26 01:56:56;;;;;;;16.40;13.15;;;;;;;23.41;100.00;95923.47;5016840;28;20053;-52
2021/07/26 01:59:24;;;;;;;19.48;13.10;;;;;;;23.08;100.00;95929.50;5010576;28;20072;-55
2021/07/26 02:01:52;;;;;;;16.85;11.70;;;;;;;22.90;100.00;95914.28;5008014;28;20475;-53
2021/07/26 02:04:21;;;;;;;16.13;12.15;;;;;;;22.83;100.00;95921.66;5011592;28;20141;-55
2021/07/26 02:06:49;;;;;;;16.08;11.98;;;;;;;23.80;100.00;95922.88;5006260;28;20072;-54
2021/07/26 02:09:18;;;;;;;15.32;11.80;;;;;;;23.98;100.00;95921.84;5005256;28;20073;-55
2021/07/26 02:11:48;;;;;;;15.65;12.05;;;;;;;24.09;100.00;95916.41;5004961;28;20427;-51
2021/07/26 02:14:16;;;;;;;18.05;12.45;;;;;;;24.13;100.00;95906.78;5009410;28;20074;-55
2021/07/26 02:16:47;;;;;;;19.13;12.35;;;;;;;23.54;100.00;95908.09;5012355;28;20093;-54
2021/07/26 02:19:15;;;;;;;17.60;11.48;;;;;;;23.65;100.00;95899.97;5010005;28;20066;-57
2021/07/26 02:21:44;;;;;;;18.60;12.63;;;;;;;23.33;100.00;95899.63;5013444;28;20075;-55
2021/07/26 02:24:12;;;;;;;15.88;11.90;;;;;;;23.08;100.00;95899.91;5012662;28;20476;-52
2021/07/26 02:26:40;;;;;;;14.93;11.55;;;;;;;23.07;100.00;95914.41;5011011;28;20067;-55
2021/07/26 02:29:10;;;;;;;15.77;11.43;;;;;;;23.06;100.00;95911.97;5008667;28;20093;-54
2021/07/26 02:31:38;;;;;;;16.58;11.65;;;;;;;24.30;100.00;95904.09;5014262;28;20078;-53
2021/07/26 02:34:07;;;;;;;14.57;10.93;;;;;;;23.82;100.00;95907.31;5008893;28;20060;-53
2021/07/26 02:36:35;;;;;;;13.45;11.30;;;;;;;23.80;100.00;95909.41;5008551;28;20065;-51
2021/07/26 02:39:03;;;;;;;15.00;10.55;;;;;;;23.83;100.00;95907.06;5018527;28;20065;-52
2021/07/26 02:41:32;;;;;;;15.15;11.35;;;;;;;23.99;100.00;95915.44;5010240;28;20066;-55
2021/07/26 02:44:00;;;;;;;14.60;10.70;;;;;;;24.00;100.00;95909.78;5009215;28;20477;-48
2021/07/26 02:46:30;;;;;;;17.75;10.93;;;;;;;23.64;100.00;95903.72;5007606;28;20197;-56
2021/07/26 02:48:58;;;;;;;13.63;11.10;;;;;;;24.41;100.00;95904.28;5010019;28;20081;-57
2021/07/26 02:51:27;;;;;;;15.95;11.25;;;;;;;24.27;100.00;95911.84;5009983;28;20096;-53
2021/07/26 02:53:56;;;;;;;14.88;10.25;;;;;;;24.48;100.00;95905.75;5007956;28;20084;-51
2021/07/26 02:56:24;;;;;;;15.43;11.05;;;;;;;24.24;100.00;95915.03;5007743;28;20070;-55
2021/07/26 02:58:53;;;;;;;19.15;11.70;;;;;;;23.55;100.00;95926.69;5011167;28;20092;-56
2021/07/26 03:01:21;;;;;;;15.00;11.18;;;;;;;23.79;100.00;95927.44;5006904;28;20735;-55
2021/07/26 03:03:51;;;;;;;14.38;11.27;;;;;;;24.11;100.00;95935.03;5011111;28;20416;-56
2021/07/26 03:06:21;;;;;;;19.80;11.93;;;;;;;24.06;100.00;95937.63;5009533;28;20107;-59
2021/07/26 03:08:50;;;;;;;17.55;10.95;;;;;;;23.98;100.00;95935.31;5009494;28;20409;-56
2021/07/26 03:11:18;;;;;;;12.85;10.38;;;;;;;23.92;100.00;95932.53;5012054;28;20085;-55
2021/07/26 03:13:46;;;;;;;14.05;10.75;;;;;;;24.21;100.00;95929.81;5018159;28;20463;-55
2021/07/26 03:16:16;;;;;;;20.05;11.50;;;;;;;23.38;100.00;95947.34;5010392;28;20073;-53
2021/07/26 03:18:44;;;;;;;21.90;12.03;;;;;;;24.13;100.00;95949.88;5009267;28;20064;-55
2021/07/26 03:21:17;;;;;;;16.73;10.82;;;;;;;23.67;100.00;95964.31;5008580;28;20065;-56
2021/07/26 03:23:46;;;;;;;13.30;10.75;;;;;;;23.93;100.00;95963.78;5013630;28;20069;-53
2021/07/26 03:26:14;;;;;;;13.43;10.70;;;;;;;24.09;100.00;95962.22;5009458;28;20703;-53
2021/07/26 03:28:43;;;;;;;20.50;11.10;;;;;;;24.12;100.00;95966.28;5010094;28;20080;-54
2021/07/26 03:31:11;;;;;;;15.30;11.10;;;;;;;24.51;100.00;95961.06;5007608;28;20073;-53
2021/07/26 03:33:39;;;;;;;15.18;10.07;;;;;;;24.66;100.00;95964.00;5009589;28;20161;-52
2021/07/26 03:36:08;;;;;;;16.73;10.40;;;;;;;23.85;100.00;95958.00;5009951;28;20065;-55
2021/07/26 03:38:38;;;;;;;15.18;10.02;;;;;;;24.45;100.00;95959.34;5018958;28;20520;-54
2021/07/26 03:41:06;;;;;;;16.02;9.93;;;;;;;24.85;100.00;95962.69;5008893;28;20089;-56
2021/07/26 03:43:34;;;;;;;19.92;9.27;;;;;;;24.62;100.00;95958.28;5008274;28;20089;-57
2021/07/26 03:46:03;;;;;;;15.85;9.57;;;;;;;24.68;100.00;95967.28;5017798;28;20073;-52
2021/07/26 03:48:31;;;;;;;13.40;9.25;;;;;;;24.04;100.00;95974.75;5008207;28;20080;-53
2021/07/26 03:50:59;;;;;;;20.80;11.48;;;;;;;23.35;100.00;95975.53;5007989;28;20072;-56
2021/07/26 03:53:28;;;;;;;13.45;9.52;;;;;;;24.42;100.00;95976.00;5003970;28;20539;-57
2021/07/26 03:55:57;;;;;;;13.73;9.57;;;;;;;24.82;100.00;95973.97;5017464;28;20539;-52
2021/07/26 03:58:26;;;;;;;14.30;9.52;;;;;;;24.94;100.00;95967.66;5012337;28;20394;-56
2021/07/26 04:00:54;;;;;;;13.88;9.55;;;;;;;24.97;100.00;95970.66;5009465;28;20092;-53
2021/07/26 04:03:25;;;;;;;15.55;8.88;;;;;;;24.80;100.00;95965.28;5011329;28;20068;-57
2021/07/26 04:06:00;;;;;;;17.35;9.40;;;;;;;24.98;100.00;95969.63;5010637;28;20544;-55
2021/07/26 04:08:30;;;;;;;15.00;9.35;;;;;;;24.51;100.00;95971.84;5009259;28;20065;-51
2021/07/26 04:11:06;;;;;;;;;;;;;;;23.72;100.00;95958.28;5006689;28;20069;-52
2021/07/26 04:13:36;;;;;;;16.27;9.55;;;;;;;23.76;100.00;95965.63;5011178;28;21410;-56
2021/07/26 04:16:05;;;;;;;14.02;8.73;;;;;;;23.71;100.00;95957.47;5007186;28;20080;-52
2021/07/26 04:18:33;;;;;;;13.02;9.20;;;;;;;23.80;100.00;95957.88;5004837;28;20077;-57
2021/07/26 04:21:08;;;;;;;11.30;9.30;;;;;;;24.22;100.00;95960.25;5005573;28;20074;-53
2021/07/26 04:23:36;;;;;;;16.42;10.15;;;;;;;23.76;100.00;95957.53;5006728;28;20085;-56
2021/07/26 04:26:07;;;;;;;14.18;9.10;;;;;;;23.60;100.00;95966.34;5008444;28;20533;-55
2021/07/26 04:28:35;;;;;;;17.40;9.27;;;;;;;24.91;100.00;95965.44;5007831;28;20084;-57
2021/07/26 04:31:04;;;;;;;13.23;9.23;;;;;;;25.20;100.00;95968.88;5007730;28;20092;-54
2021/07/26 04:33:32;;;;;;;14.30;8.52;;;;;;;25.38;100.00;95962.34;5008096;28;20082;-51
2021/07/26 04:36:01;;;;;;;14.82;9.15;;;;;;;23.80;100.00;95964.09;5006574;28;20065;-50
2021/07/26 04:38:30;;;;;;;13.52;8.75;;;;;;;23.72;100.00;95969.03;5007678;28;20066;-52
2021/07/26 04:40:58;;;;;;;16.33;8.82;;;;;;;23.66;100.00;95963.50;5011174;28;20531;-54
2021/07/26 04:43:28;;;;;;;15.30;9.63;;;;;;;23.68;100.00;95960.63;5006758;28;20241;-53
2021/07/26 04:45:58;;;;;;;12.38;8.77;;;;;;;24.36;100.00;95958.88;5010009;28;20080;-54
2021/07/26 04:48:27;;;;;;;12.88;8.68;;;;;;;23.97;100.00;95960.63;5011609;28;20546;-52
2021/07/26 04:50:55;;;;;;;13.77;8.57;;;;;;;24.84;100.00;95961.06;5008256;28;20465;-55
2021/07/26 04:53:27;;;;;;;13.05;8.50;;;;;;;25.19;100.00;95972.59;5010665;28;20049;-55
2021/07/26 04:55:55;;;;;;;18.25;8.52;;;;;;;25.60;100.00;95973.16;5007249;28;20088;-55
2021/07/26 04:58:24;;;;;;;13.80;8.38;;;;;;;25.57;100.00;95977.19;5013979;28;20065;-50
2021/07/26 05:00:53;;;;;;;15.20;9.05;;;;;;;25.82;100.00;95987.50;5008238;28;20476;-49
2021/07/26 05:03:22;;;;;;;15.07;9.00;;;;;;;25.60;100.00;95984.75;5006410;28;20069;-52
2021/07/26 05:05:50;;;;;;;12.95;8.65;;;;;;;25.40;100.00;95987.22;5010593;28;20437;-56
2021/07/26 05:08:19;;;;;;;15.40;8.27;;;;;;;25.96;100.00;95991.44;5007139;28;20484;-55
2021/07/26 05:10:48;;;;;;;16.67;8.32;;;;;;;25.25;100.00;95988.63;5011664;28;20085;-52
2021/07/26 05:13:16;;;;;;;13.05;8.00;;;;;;;25.78;100.00;95989.84;5005720;28;20073;-55
2021/07/26 05:15:44;;;;;;;10.65;7.55;;;;;;;25.60;100.00;95990.16;5009030;28;20065;-53
2021/07/26 05:18:14;;;;;;;11.18;8.10;;;;;;;25.39;100.00;95989.09;5007705;28;20065;-56
2021/07/26 05:20:42;;;;;;;14.23;8.75;;;;;;;25.67;100.00;96003.47;5008585;28;20062;-56
2021/07/26 05:23:11;;;;;;;16.10;8.25;;;;;;;25.91;100.00;96001.34;5003954;28;20543;-51
2021/07/26 05:25:43;;;;;;;144.40;25.48;;;;;;;26.16;100.00;96011.66;5016350;28;20096;-53
2021/07/26 05:28:12;;;;;;;236.77;33.13;;;;;;;26.24;100.00;96003.88;5005583;28;20069;-52
2021/07/26 05:30:41;;;;;;;78.65;16.13;;;;;;;25.63;100.00;96015.84;5010392;28;20372;-54
2021/07/26 05:33:09;;;;;;;20.05;8.90;;;;;;;25.25;100.00;96012.91;5012051;28;20049;-51
2021/07/26 05:35:41;;;;;;;15.77;8.35;;;;;;;24.67;100.00;96021.44;5008310;28;20073;-51
2021/07/26 05:38:09;;;;;;;17.98;8.25;;;;;;;24.56;100.00;96012.34;5005549;28;20076;-56
2021/07/26 05:40:37;;;;;;;11.48;7.75;;;;;;;25.05;100.00;96007.19;5013897;28;20100;-56
2021/07/26 05:43:06;;;;;;;13.82;7.93;;;;;;;25.38;100.00;96016.34;5010840;28;20070;-54
2021/07/26 05:45:37;;;;;;;10.18;7.50;;;;;;;25.61;100.00;96015.31;5006229;28;20073;-55
2021/07/26 05:48:06;;;;;;;12.40;7.30;;;;;;;25.65;100.00;96009.13;4997933;28;20061;-55
2021/07/26 05:50:34;;;;;;;11.18;7.32;;;;;;;26.22;100.00;96010.63;5011125;28;20077;-57
2021/07/26 05:53:06;;;;;;;17.73;7.90;;;;;;;26.52;100.00;96007.44;5016728;28;20089;-56
2021/07/26 05:55:34;;;;;;;11.95;7.28;;;;;;;26.51;100.00;96005.81;5016832;28;20041;-56
2021/07/26 05:58:04;;;;;;;13.68;7.22;;;;;;;26.10;100.00;96010.78;5014540;28;20277;-53
2021/07/26 06:00:41;;;;;;;10.65;6.88;;;;;;;26.65;100.00;95998.91;5014464;28;20074;-55
2021/07/26 06:03:10;;;;;;;12.20;7.28;;;;;;;26.76;100.00;95999.78;5012608;28;20065;-52
2021/07/26 06:05:38;;;;;;;12.32;6.90;;;;;;;26.03;100.00;96004.75;5013331;28;20061;-55
2021/07/26 06:08:08;;;;;;;10.18;7.13;;;;;;;25.43;100.00;96001.03;5018177;28;20085;-53
2021/07/26 06:10:37;;;;;;;11.93;7.07;;;;;;;26.34;100.00;96003.19;5014905;28;20086;-53
2021/07/26 06:13:07;;;;;;;11.23;6.68;;;;;;;25.84;100.00;96006.97;5008677;28;20066;-56
2021/07/26 06:15:36;;;;;;;;;;;;;;;26.45;100.00;96012.19;5013690;28;20073;-56
2021/07/26 06:18:04;;;;;;;9.35;6.55;;;;;;;26.21;100.00;96020.63;5016559;28;19952;-53
2021/07/26 06:20:33;;;;;;;11.23;6.80;;;;;;;26.11;100.00;96015.09;5011948;28;20081;-55
2021/07/26 06:23:01;;;;;;;9.18;6.80;;;;;;;26.80;100.00;96008.19;5008332;28;20077;-52
2021/07/26 06:25:31;;;;;;;10.88;6.80;;;;;;;26.07;100.00;96013.16;5008992;28;20081;-55
2021/07/26 06:27:59;;;;;;;11.40;6.70;;;;;;;26.85;100.00;96000.16;5011864;28;20077;-53
2021/07/26 06:30:28;;;;;;;12.20;6.65;;;;;;;27.20;100.00;95997.69;5013770;28;20080;-55
2021/07/26 06:32:56;;;;;;;12.20;6.82;;;;;;;27.14;100.00;96000.63;5011807;28;20481;-54
2021/07/26 06:35:24;;;;;;;9.70;7.35;;;;;;;28.19;100.00;95994.38;5018365;28;20088;-54
2021/07/26 06:37:53;;;;;;;10.77;6.85;;;;;;;27.84;100.00;96004.00;5012571;28;20081;-58
2021/07/26 06:40:21;;;;;;;7.80;6.28;;;;;;;27.72;100.00;96008.81;5014902;28;20092;-51
2021/07/26 06:42:51;;;;;;;11.30;7.00;;;;;;;28.13;100.00;96004.38;5011258;28;20528;-56
2021/07/26 06:45:19;;;;;;;8.93;6.20;;;;;;;29.30;100.00;96004.47;5010592;28;20088;-51
2021/07/26 06:47:49;;;;;;;8.00;6.55;;;;;;;28.52;100.00;96003.94;5015553;28;20073;-57
2021/07/26 06:50:18;;;;;;;9.95;7.03;;;;;;;28.91;100.00;96011.56;5008612;28;20086;-54
2021/07/26 06:52:47;;;;;;;9.18;6.95;;;;;;;29.23;98.33;96008.56;5025888;28;20069;-56
2021/07/26 06:55:15;;;;;;;9.27;7.05;;;;;;;29.27;98.89;95996.84;5008930;28;20066;-51
2021/07/26 06:57:44;;;;;;;7.75;6.60;;;;;;;28.95;96.62;95996.34;5012348;28;20072;-56
2021/07/26 07:00:15;;;;;;;7.55;6.75;;;;;;;28.61;100.00;95994.19;5015480;28;20461;-55
2021/07/26 07:02:43;;;;;;;8.63;6.80;;;;;;;27.80;100.00;96001.00;5014226;28;20084;-54
2021/07/26 07:05:11;;;;;;;10.45;7.60;;;;;;;27.42;100.00;96010.28;5006108;28;20077;-56
2021/07/26 07:07:40;;;;;;;10.43;7.10;;;;;;;28.79;100.00;96018.06;5007811;28;20081;-54
2021/07/26 07:10:09;;;;;;;8.95;6.45;;;;;;;28.70;100.00;96022.41;5016414;28;20042;-57
2021/07/26 07:12:37;;;;;;;9.95;7.20;;;;;;;27.88;100.00;96021.38;5017842;28;20072;-56
2021/07/26 07:15:06;;;;;;;10.98;6.63;;;;;;;28.47;100.00;96029.16;5010723;28;20069;-51
2021/07/26 07:17:36;;;;;;;13.93;6.47;;;;;;;29.61;100.00;96038.94;5011916;28;20066;-55
2021/07/26 07:20:06;;;;;;;8.57;6.18;;;;;;;30.14;93.00;96036.53;5016321;28;20527;-54
2021/07/26 07:22:34;;;;;;;8.13;5.90;;;;;;;29.71;98.96;96044.34;5017165;28;20099;-56
2021/07/26 07:25:03;;;;;;;8.95;5.95;;;;;;;29.95;93.87;96041.81;5009041;28;20061;-54
2021/07/26 07:27:31;;;;;;;9.05;5.97;;;;;;;30.48;88.42;96034.75;5009002;28;20066;-53
2021/07/26 07:30:13;;;;;;;8.68;5.47;;;;;;;31.76;73.58;96027.41;5007747;28;20070;-57
2021/07/26 07:32:43;;;;;;;7.00;5.53;;;;;;;30.69;80.55;96035.41;5009931;28;20061;-56
2021/07/26 07:35:12;;;;;;;6.32;5.57;;;;;;;30.67;83.56;96026.75;5014549;28;20907;-56
2021/07/26 07:37:41;;;;;;;8.82;5.68;;;;;;;30.04;83.51;96016.47;5018603;28;20087;-54
2021/07/26 07:40:11;;;;;;;7.95;5.60;;;;;;;29.42;87.45;96020.47;5010203;28;20515;-55
2021/07/26 07:42:39;;;;;;;7.30;5.40;;;;;;;30.86;78.49;96018.72;5008915;28;20053;-57
2021/07/26 07:45:09;;;;;;;9.40;5.40;;;;;;;29.85;77.42;96014.66;5008708;28;20054;-54
2021/07/26 07:47:38;;;;;;;9.27;5.18;;;;;;;30.86;72.07;96016.00;5014157;28;20072;-56
2021/07/26 07:50:11;;;;;;;7.03;4.95;;;;;;;30.61;73.69;96018.88;5010210;28;20069;-52
2021/07/26 07:52:39;;;;;;;7.43;4.93;;;;;;;31.59;64.82;96012.34;5009256;28;20108;-54
2021/07/26 07:55:09;;;;;;;7.05;4.65;;;;;;;32.03;60.34;96008.56;4998429;28;20058;-57
2021/07/26 07:57:37;;;;;;;5.85;4.50;;;;;;;31.43;67.33;96019.06;5009292;28;20066;-53
2021/07/26 08:00:08;;;;;;;6.35;4.88;;;;;;;29.08;77.39;96015.66;5007777;28;20069;-55
2021/07/26 08:02:37;;;;;;;8.88;5.43;;;;;;;29.81;72.01;96019.84;5017667;28;20061;-54
2021/07/26 08:05:06;;;;;;;6.47;4.70;;;;;;;29.04;80.49;96020.00;5011020;28;20516;-51
2021/07/26 08:07:35;;;;;;;6.82;4.65;;;;;;;31.49;60.57;96006.16;5006529;28;20069;-54
2021/07/26 08:10:05;;;;;;;6.60;4.80;;;;;;;32.24;56.53;96011.81;5021026;28;20065;-55
2021/07/26 08:12:34;;;;;;;6.32;4.90;;;;;;;30.55;64.97;96015.38;5004128;28;20066;-56
2021/07/26 08:15:02;;;;;;;7.85;5.15;;;;;;;30.10;73.89;96016.44;5012020;28;20524;-57
2021/07/26 08:17:31;;;;;;;5.43;4.65;;;;;;;31.56;58.86;96012.13;5007458;28;20092;-56
2021/07/26 08:19:59;;;;;;;5.38;4.20;;;;;;;31.12;61.96;96016.59;5015041;28;20069;-53
2021/07/26 08:22:27;;;;;;;7.20;5.07;;;;;;;32.06;56.50;96001.72;5010467;28;20511;-56
2021/07/26 08:24:57;;;;;;;5.78;4.68;;;;;;;32.57;54.71;96001.81;5010312;28;20088;-56
2021/07/26 08:27:26;;;;;;;4.90;4.32;;;;;;;33.04;53.83;95999.22;5002226;28;20078;-51
2021/07/26 08:29:54;;;;;;;6.30;5.18;;;;;;;32.92;53.94;96002.38;5013311;28;20065;-52
2021/07/26 08:32:23;;;;;;;8.32;5.57;;;;;;;32.56;54.57;95994.75;5011267;28;20066;-54
2021/07/26 08:34:51;;;;;;;5.90;4.75;;;;;;;32.55;53.86;95993.13;5013457;28;20085;-55
2021/07/26 08:37:30;;;;;;;5.82;4.45;;;;;;;31.72;59.77;95991.72;5011403;28;20077;-54
2021/07/26 08:40:02;;;;;;;6.07;4.70;;;;;;;31.47;54.91;95994.75;5011644;28;20076;-55
2021/07/26 08:42:31;;;;;;;5.30;4.80;;;;;;;31.07;57.66;96003.00;5013422;28;20076;-53
2021/07/26 08:44:59;;;;;;;5.63;4.50;;;;;;;30.18;69.71;95994.97;5007616;28;20445;-50
2021/07/26 08:47:29;;;;;;;5.32;4.63;;;;;;;32.83;53.15;95988.59;5015364;28;20076;-55
2021/07/26 08:50:00;;;;;;;6.47;4.82;;;;;;;32.09;53.71;95998.41;5008602;28;20089;-55
2021/07/26 08:52:32;;;;;;;7.05;4.97;;;;;;;32.75;51.24;95996.63;5013680;28;20476;-57
2021/07/26 08:55:03;;;;;;;6.72;4.95;;;;;;;32.35;52.33;95993.41;5004039;28;20070;-53
2021/07/26 08:57:34;;;;;;;5.47;4.75;;;;;;;29.57;66.13;96001.41;5016182;28;20087;-50
2021/07/26 09:00:03;;;;;;;5.75;4.88;;;;;;;31.25;56.77;95996.06;5007258;28;20061;-52
2021/07/26 09:02:48;;;;;;;7.95;5.00;;;;;;;31.68;55.71;95988.78;5010911;28;20271;-56
2021/07/26 09:05:17;;;;;;;6.43;5.00;;;;;;;33.03;50.22;95992.91;5009114;28;20084;-56
2021/07/26 09:07:47;;;;;;;7.22;4.97;;;;;;;33.42;48.95;95991.69;5009338;28;20077;-55
2021/07/26 09:10:17;;;;;;;;;;;;;;;32.71;52.96;96001.09;5010400;28;20073;-57
2021/07/26 09:12:46;;;;;;;5.93;4.65;;;;;;;32.19;52.89;96009.19;5011839;28;19960;-57
2021/07/26 09:15:31;;;;;;;7.32;5.40;;;;;;;32.89;50.35;96008.41;5006476;28;20524;-57
2021/07/26 09:18:01;;;;;;;9.35;5.15;;;;;;;31.98;55.05;96008.63;5007486;28;20137;-51
2021/07/26 09:20:31;;;;;;;6.07;5.15;;;;;;;32.89;51.25;96005.69;5014202;28;20511;-55
2021/07/26 09:23:09;;;;;;;5.53;4.90;;;;;;;31.76;54.82;96009.13;5011758;28;20081;-50
2021/07/26 09:25:39;;;;;;;6.68;5.38;;;;;;;32.59;51.36;96013.28;5007636;28;20069;-55
2021/07/26 09:28:11;;;;;;;7.30;5.47;;;;;;;33.00;50.02;96011.81;5009544;28;20057;-53
2021/07/26 09:30:44;;;;;;;6.15;5.25;;;;;;;32.19;51.45;96017.38;5015821;28;20076;-50
2021/07/26 09:33:18;;;;;;;7.28;5.22;;;;;;;31.26;56.43;96018.66;5008584;28;20069;-54
2021/07/26 09:35:46;;;;;;;6.93;5.45;;;;;;;32.17;53.79;96008.66;5009910;28;20065;-57
2021/07/26 09:38:24;;;;;;;6.45;5.13;;;;;;;32.79;53.51;96009.38;5013062;28;20085;-58
2021/07/26 09:40:54;;;;;;;8.35;5.03;;;;;;;32.02;54.48;96012.41;5017116;28;20096;-57
2021/07/26 09:43:24;;;;;;;7.25;5.35;;;;;;;33.30;50.34;96005.00;5013351;28;20467;-55
2021/07/26 09:45:54;;;;;;;7.30;5.50;;;;;;;31.47;53.26;96011.91;5009699;28;20072;-55
2021/07/26 09:48:23;;;;;;;6.75;5.63;;;;;;;32.93;48.98;96022.28;5014281;28;20066;-56
2021/07/26 09:50:51;;;;;;;5.93;5.32;;;;;;;33.14;48.72;96020.91;5013006;28;20061;-56
2021/07/26 09:53:22;;;;;;;7.80;5.45;;;;;;;31.94;55.16;96007.59;5012561;28;20057;-57
2021/07/26 09:55:51;;;;;;;6.90;5.50;;;;;;;32.34;51.73;96019.06;5010699;28;20077;-54
2021/07/26 09:58:36;;;;;;;9.02;5.70;;;;;;;31.06;60.93;96020.47;5016144;28;20065;-54
2021/07/26 10:01:06;;;;;;;8.35;5.72;;;;;;;32.31;51.80;96015.03;5010941;28;20065;-56
2021/07/26 10:03:37;;;;;;;6.85;5.60;;;;;;;30.71;60.06;96021.53;5012031;28;20571;-57
2021/07/26 10:06:06;;;;;;;6.18;5.22;;;;;;;29.89;62.41;96013.00;5014866;28;20078;-56
2021/07/26 10:08:34;;;;;;;6.40;5.00;;;;;;;32.05;54.08;96013.75;5016655;28;20079;-56
2021/07/26 10:11:03;;;;;;;6.72;5.53;;;;;;;31.05;61.26;96020.75;5012402;28;20481;-53
2021/07/26 10:13:33;;;;;;;7.57;5.90;;;;;;;30.67;63.19;96017.75;5012717;28;20081;-56
2021/07/26 10:16:02;;;;;;;6.60;5.63;;;;;;;30.69;61.32;96010.09;5012812;28;20077;-52
2021/07/26 10:18:30;;;;;;;6.57;5.40;;;;;;;31.89;56.97;96005.72;5014759;28;20076;-57
2021/07/26 10:21:02;;;;;;;6.05;5.40;;;;;;;31.28;57.39;96011.00;5010636;28;20069;-53
2021/07/26 10:23:32;;;;;;;6.65;5.40;;;;;;;30.88;58.24;96015.72;5012330;28;20073;-53
2021/07/26 10:26:05;;;;;;;7.65;5.60;;;;;;;32.46;53.46;96005.03;5013479;28;20085;-53
2021/07/26 10:28:38;;;;;;;8.40;4.97;;;;;;;33.03;50.22;96006.56;5019052;28;21420;-56
2021/07/26 10:31:37;;;;;;;6.13;5.20;;;;;;;32.42;53.11;96007.53;5010630;28;20061;-57
2021/07/26 10:34:08;;;;;;;6.40;5.20;;;;;;;32.88;48.93;96008.72;5013697;28;20069;-52
2021/07/26 10:37:01;;;;;;;6.32;5.50;;;;;;;31.89;53.19;95997.56;5016604;28;20088;-55
2021/07/26 10:39:30;;;;;;;7.00;5.10;;;;;;;32.47;48.54;96003.91;5009513;28;20070;-54
2021/07/26 10:42:05;;;;;;;5.45;4.53;;;;;;;33.00;46.91;95999.00;5008489;28;20508;-58
2021/07/26 10:44:43;;;;;;;5.60;4.78;;;;;;;33.06;47.78;95999.69;5014914;28;20076;-52
2021/07/26 10:47:20;;;;;;;5.53;4.40;;;;;;;32.13;49.66;96005.69;5013805;28;20078;-56
2021/07/26 10:50:17;;;;;;;6.13;4.32;;;;;;;33.87;43.32;96002.06;5015315;28;20073;-54
2021/07/26 10:52:46;;;;;;;6.70;3.88;;;;;;;32.96;45.21;96008.88;5008324;28;20445;-55
2021/07/26 10:56:09;;;;;;;6.45;4.88;;;;;;;33.90;42.69;96004.19;5007142;28;20081;-56
2021/07/26 10:59:05;;;;;;;6.05;5.35;;;;;;;33.03;46.02;96017.50;4959114;28;20293;-56
2021/07/26 11:01:53;;;;;;;6.95;5.47;;;;;;;32.91;47.18;96003.47;4971454;28;20078;-53
2021/07/26 11:04:39;;;;;;;7.05;5.40;;;;;;;33.32;46.38;96008.28;5008933;28;20080;-55
2021/07/26 11:07:29;;;;;;;7.00;5.50;;;;;;;34.34;43.93;96013.66;5011196;28;20069;-54
2021/07/26 11:09:58;;;;;;;6.90;4.97;;;;;;;34.54;43.89;96007.75;5011872;28;20061;-53
2021/07/26 11:12:55;;;;;;;6.80;5.50;;;;;;;33.04;47.59;96007.41;5007189;28;20545;-56
2021/07/26 11:15:24;;;;;;;8.30;5.80;;;;;;;33.09;46.86;96012.78;5010575;28;20540;-55
2021/07/26 11:18:18;;;;;;;8.32;5.75;;;;;;;32.90;45.51;96009.22;5014551;28;20069;-52
2021/07/26 11:20:57;;;;;;;5.72;5.10;;;;;;;33.73;48.64;96002.06;5007751;28;20528;-54
2021/07/26 11:23:46;;;;;;;5.47;4.82;;;;;;;33.22;49.02;95998.31;5011381;28;20474;-51
2021/07/26 11:26:19;;;;;;;5.50;5.00;;;;;;;32.76;50.87;96000.97;5006035;28;20091;-53
2021/07/26 11:28:48;;;;;;;6.97;5.32;;;;;;;31.72;56.04;95999.09;5015988;28;20141;-52
2021/07/26 11:31:23;;;;;;;6.57;5.23;;;;;;;32.69;50.96;95995.09;5014959;28;20076;-52
2021/07/26 11:33:54;;;;;;;6.38;5.10;;;;;;;33.21;49.88;95984.94;5014826;28;20068;-52
2021/07/26 11:36:22;;;;;;;7.18;5.38;;;;;;;32.70;48.20;95986.63;5007977;28;20064;-55
2021/07/26 11:38:57;;;;;;;6.65;4.68;;;;;;;33.30;47.52;95983.97;5008198;28;20065;-55